sensor_id;sensor_type;location;lat;lon;timestamp;temperature;humidity
33831;DHT22;20137;48.834;8.732;2023-08-12T00:02:15;19.20;99.90
33831;DHT22;20137;48.834;8.732;2023-08-12T00:04:57;19.20;99.90
33831;DHT22;20137;48.834;8.732;2023-08-12T00:07:35;19.20;99.90
33831;DHT22;20137;48.834;8.732;2023-08-12T00:10:11;19.10;99.90
33831;DHT22;20137;48.834;8.732;2023-08-12T00:12:45;19.10;99.90
33831;DHT22;20137;48.834;8.732;2023-08-12T00:15:36;19.10;99.90
33831;DHT22;20137;48.834;8.732;2023-08-12T00:18:12;19.00;99.90
33831;DHT22;20137;48.834;8.732;2023-08-12T00:20:41;19.00;99.90
33831;DHT22;20137;48.834;8.732;2023-08-12T00:23:17;19.00;99.90
33831;DHT22;20137;48.834;8.732;2023-08-12T00:26:06;19.00;99.90
33831;DHT22;20137;48.834;8.732;2023-08-12T00:28:37;19.00;99.90
33831;DHT22;20137;48.834;8.732;2023-08-12T00:31:06;19.00;99.90
33831;DHT22;20137;48.834;8.732;2023-08-12T00:33:41;19.00;99.90
33831;DHT22;20137;48.834;8.732;2023-08-12T00:36:06;19.00;99.90
33831;DHT22;20137;48.834;8.732;2023-08-12T00:38:35;19.00;99.90
33831;DHT22;20137;48.834;8.732;2023-08-12T00:41:03;19.10;99.90
33831;DHT22;20137;48.834;8.732;2023-08-12T00:43:48;19.10;99.90
33831;DHT22;20137;48.834;8.732;2023-08-12T00:46:19;19.10;99.90
33831;DHT22;20137;48.834;8.732;2023-08-12T00:48:53;19.10;99.90
33831;DHT22;20137;48.834;8.732;2023-08-12T00:51:33;19.20;99.90
33831;DHT22;20137;48.834;8.732;2023-08-12T00:54:05;19.20;99.90
33831;DHT22;20137;48.834;8.732;2023-08-12T00:56:38;19.30;99.90
33831;DHT22;20137;48.834;8.732;2023-08-12T00:59:09;19.40;99.90
33831;DHT22;20137;48.834;8.732;2023-08-12T01:01:43;19.60;99.90
33831;DHT22;20137;48.834;8.732;2023-08-12T01:07:09;19.80;99.90
33831;DHT22;20137;48.834;8.732;2023-08-12T01:09:46;19.80;99.90
33831;DHT22;20137;48.834;8.732;2023-08-12T01:12:24;19.90;99.90
33831;DHT22;20137;48.834;8.732;2023-08-12T01:15:06;19.90;99.90
33831;DHT22;20137;48.834;8.732;2023-08-12T01:17:37;20.00;99.90
33831;DHT22;20137;48.834;8.732;2023-08-12T01:20:07;20.10;99.90
33831;DHT22;20137;48.834;8.732;2023-08-12T01:22:44;20.20;99.90
33831;DHT22;20137;48.834;8.732;2023-08-12T01:25:18;20.20;99.90
33831;DHT22;20137;48.834;8.732;2023-08-12T01:27:44;20.20;99.90
33831;DHT22;20137;48.834;8.732;2023-08-12T01:30:24;20.30;99.90
33831;DHT22;20137;48.834;8.732;2023-08-12T01:36:09;20.40;99.90
33831;DHT22;20137;48.834;8.732;2023-08-12T01:38:41;20.50;99.90
33831;DHT22;20137;48.834;8.732;2023-08-12T01:41:15;20.50;99.90
33831;DHT22;20137;48.834;8.732;2023-08-12T01:43:42;20.50;99.90
33831;DHT22;20137;48.834;8.732;2023-08-12T01:49:16;20.50;99.90
33831;DHT22;20137;48.834;8.732;2023-08-12T01:51:52;20.50;99.90
33831;DHT22;20137;48.834;8.732;2023-08-12T01:54:30;20.50;99.90
33831;DHT22;20137;48.834;8.732;2023-08-12T01:57:02;20.50;99.90
33831;DHT22;20137;48.834;8.732;2023-08-12T01:59:50;20.60;99.90
33831;DHT22;20137;48.834;8.732;2023-08-12T02:02:19;20.60;99.90
33831;DHT22;20137;48.834;8.732;2023-08-12T02:04:50;20.70;99.90
33831;DHT22;20137;48.834;8.732;2023-08-12T02:07:40;20.70;99.90
33831;DHT22;20137;48.834;8.732;2023-08-12T02:12:59;20.70;99.90
33831;DHT22;20137;48.834;8.732;2023-08-12T02:15:25;20.70;99.90
33831;DHT22;20137;48.834;8.732;2023-08-12T02:17:58;20.70;99.90
33831;DHT22;20137;48.834;8.732;2023-08-12T02:20:30;20.60;99.90
33831;DHT22;20137;48.834;8.732;2023-08-12T02:23:14;20.60;99.90
33831;DHT22;20137;48.834;8.732;2023-08-12T02:28:42;20.70;99.90
33831;DHT22;20137;48.834;8.732;2023-08-12T02:31:29;20.70;99.90
33831;DHT22;20137;48.834;8.732;2023-08-12T02:34:16;20.80;99.90
33831;DHT22;20137;48.834;8.732;2023-08-12T02:36:44;20.80;99.90
33831;DHT22;20137;48.834;8.732;2023-08-12T02:39:09;20.80;99.90
33831;DHT22;20137;48.834;8.732;2023-08-12T02:41:37;20.80;99.90
33831;DHT22;20137;48.834;8.732;2023-08-12T02:44:11;20.80;99.90
33831;DHT22;20137;48.834;8.732;2023-08-12T02:46:46;20.80;99.90
33831;DHT22;20137;48.834;8.732;2023-08-12T02:49:14;20.80;99.90
33831;DHT22;20137;48.834;8.732;2023-08-12T02:51:43;20.80;99.90
33831;DHT22;20137;48.834;8.732;2023-08-12T02:54:09;20.80;99.90
33831;DHT22;20137;48.834;8.732;2023-08-12T02:56:36;20.80;99.90
33831;DHT22;20137;48.834;8.732;2023-08-12T02:59:02;20.90;99.90
33831;DHT22;20137;48.834;8.732;2023-08-12T03:01:38;20.90;99.90
33831;DHT22;20137;48.834;8.732;2023-08-12T03:04:15;20.90;99.90
33831;DHT22;20137;48.834;8.732;2023-08-12T03:06:52;20.90;99.90
33831;DHT22;20137;48.834;8.732;2023-08-12T03:09:26;21.10;99.90
33831;DHT22;20137;48.834;8.732;2023-08-12T03:12:05;21.00;99.90
33831;DHT22;20137;48.834;8.732;2023-08-12T03:14:31;21.10;99.90
33831;DHT22;20137;48.834;8.732;2023-08-12T03:16:59;21.10;99.90
33831;DHT22;20137;48.834;8.732;2023-08-12T03:19:27;20.80;99.90
33831;DHT22;20137;48.834;8.732;2023-08-12T03:22:02;20.50;99.90
33831;DHT22;20137;48.834;8.732;2023-08-12T03:24:31;20.30;99.90
33831;DHT22;20137;48.834;8.732;2023-08-12T03:27:05;20.00;99.90
33831;DHT22;20137;48.834;8.732;2023-08-12T03:29:36;19.80;99.90
33831;DHT22;20137;48.834;8.732;2023-08-12T03:32:25;19.70;99.90
33831;DHT22;20137;48.834;8.732;2023-08-12T03:37:51;19.60;99.90
33831;DHT22;20137;48.834;8.732;2023-08-12T03:40:24;19.70;99.90
33831;DHT22;20137;48.834;8.732;2023-08-12T03:42:55;19.70;99.90
33831;DHT22;20137;48.834;8.732;2023-08-12T03:45:39;19.70;99.90
33831;DHT22;20137;48.834;8.732;2023-08-12T03:48:22;19.70;99.90
33831;DHT22;20137;48.834;8.732;2023-08-12T03:50:52;19.80;99.90
33831;DHT22;20137;48.834;8.732;2023-08-12T03:53:23;19.80;99.90
33831;DHT22;20137;48.834;8.732;2023-08-12T03:55:57;19.80;99.90
33831;DHT22;20137;48.834;8.732;2023-08-12T03:58:43;19.90;99.90
33831;DHT22;20137;48.834;8.732;2023-08-12T04:01:09;19.90;99.90
33831;DHT22;20137;48.834;8.732;2023-08-12T04:03:35;19.90;99.90
33831;DHT22;20137;48.834;8.732;2023-08-12T04:06:03;19.90;99.90
33831;DHT22;20137;48.834;8.732;2023-08-12T04:08:42;19.90;99.90
33831;DHT22;20137;48.834;8.732;2023-08-12T04:11:07;19.90;99.90
33831;DHT22;20137;48.834;8.732;2023-08-12T04:13:33;19.90;99.90
33831;DHT22;20137;48.834;8.732;2023-08-12T04:16:19;19.90;99.90
33831;DHT22;20137;48.834;8.732;2023-08-12T04:18:45;20.00;99.90
33831;DHT22;20137;48.834;8.732;2023-08-12T04:21:11;20.00;99.90
33831;DHT22;20137;48.834;8.732;2023-08-12T04:23:42;20.10;99.90
33831;DHT22;20137;48.834;8.732;2023-08-12T04:26:07;20.10;99.90
33831;DHT22;20137;48.834;8.732;2023-08-12T04:28:49;20.10;99.90
33831;DHT22;20137;48.834;8.732;2023-08-12T04:31:27;20.10;99.90
33831;DHT22;20137;48.834;8.732;2023-08-12T04:34:16;20.20;99.90
33831;DHT22;20137;48.834;8.732;2023-08-12T04:36:42;20.10;99.90
33831;DHT22;20137;48.834;8.732;2023-08-12T04:39:16;20.10;99.90
33831;DHT22;20137;48.834;8.732;2023-08-12T04:41:53;20.00;99.90
33831;DHT22;20137;48.834;8.732;2023-08-12T04:47:38;19.90;99.90
33831;DHT22;20137;48.834;8.732;2023-08-12T04:50:06;19.80;99.90
33831;DHT22;20137;48.834;8.732;2023-08-12T04:52:35;19.80;99.90
33831;DHT22;20137;48.834;8.732;2023-08-12T04:55:11;19.90;99.90
33831;DHT22;20137;48.834;8.732;2023-08-12T04:57:39;19.80;99.90
33831;DHT22;20137;48.834;8.732;2023-08-12T05:00:13;19.90;99.90
33831;DHT22;20137;48.834;8.732;2023-08-12T05:02:43;19.80;99.90
33831;DHT22;20137;48.834;8.732;2023-08-12T05:05:11;19.80;99.90
33831;DHT22;20137;48.834;8.732;2023-08-12T05:07:42;19.80;99.90
33831;DHT22;20137;48.834;8.732;2023-08-12T05:10:21;19.90;99.90
33831;DHT22;20137;48.834;8.732;2023-08-12T05:12:52;19.90;99.90
33831;DHT22;20137;48.834;8.732;2023-08-12T05:15:19;19.90;99.90
33831;DHT22;20137;48.834;8.732;2023-08-12T05:17:45;20.00;99.90
33831;DHT22;20137;48.834;8.732;2023-08-12T05:20:20;20.00;99.90
33831;DHT22;20137;48.834;8.732;2023-08-12T05:22:48;20.20;99.90
33831;DHT22;20137;48.834;8.732;2023-08-12T05:25:16;20.20;99.90
33831;DHT22;20137;48.834;8.732;2023-08-12T05:27:45;20.10;99.90
33831;DHT22;20137;48.834;8.732;2023-08-12T05:30:37;20.00;99.90
33831;DHT22;20137;48.834;8.732;2023-08-12T05:33:09;20.00;99.90
33831;DHT22;20137;48.834;8.732;2023-08-12T05:35:38;19.90;99.90
33831;DHT22;20137;48.834;8.732;2023-08-12T05:38:09;19.80;99.90
33831;DHT22;20137;48.834;8.732;2023-08-12T05:40:55;19.80;99.90
33831;DHT22;20137;48.834;8.732;2023-08-12T05:43:35;19.80;99.90
33831;DHT22;20137;48.834;8.732;2023-08-12T05:46:11;19.80;99.90
33831;DHT22;20137;48.834;8.732;2023-08-12T05:48:37;19.90;99.90
33831;DHT22;20137;48.834;8.732;2023-08-12T05:51:05;20.00;99.90
33831;DHT22;20137;48.834;8.732;2023-08-12T05:53:31;20.10;99.90
33831;DHT22;20137;48.834;8.732;2023-08-12T05:55:57;20.10;99.90
33831;DHT22;20137;48.834;8.732;2023-08-12T05:58:39;20.20;99.90
33831;DHT22;20137;48.834;8.732;2023-08-12T06:01:08;20.40;99.90
33831;DHT22;20137;48.834;8.732;2023-08-12T06:03:43;20.40;99.90
33831;DHT22;20137;48.834;8.732;2023-08-12T06:06:09;20.50;99.90
33831;DHT22;20137;48.834;8.732;2023-08-12T06:11:28;20.70;99.90
33831;DHT22;20137;48.834;8.732;2023-08-12T06:14:06;20.80;99.90
33831;DHT22;20137;48.834;8.732;2023-08-12T06:16:31;21.00;99.90
33831;DHT22;20137;48.834;8.732;2023-08-12T06:19:19;21.10;99.90
33831;DHT22;20137;48.834;8.732;2023-08-12T06:21:45;21.20;99.90
33831;DHT22;20137;48.834;8.732;2023-08-12T06:24:16;21.30;99.90
33831;DHT22;20137;48.834;8.732;2023-08-12T06:26:44;21.30;99.90
33831;DHT22;20137;48.834;8.732;2023-08-12T06:29:26;21.40;99.90
33831;DHT22;20137;48.834;8.732;2023-08-12T06:31:58;21.50;99.90
33831;DHT22;20137;48.834;8.732;2023-08-12T06:37:08;21.80;99.90
33831;DHT22;20137;48.834;8.732;2023-08-12T06:39:36;22.00;99.90
33831;DHT22;20137;48.834;8.732;2023-08-12T06:42:04;22.20;99.90
33831;DHT22;20137;48.834;8.732;2023-08-12T06:44:30;22.20;99.90
33831;DHT22;20137;48.834;8.732;2023-08-12T06:47:04;22.20;99.90
33831;DHT22;20137;48.834;8.732;2023-08-12T06:49:32;22.30;99.90
33831;DHT22;20137;48.834;8.732;2023-08-12T06:52:12;22.50;99.90
33831;DHT22;20137;48.834;8.732;2023-08-12T06:54:41;22.90;99.90
33831;DHT22;20137;48.834;8.732;2023-08-12T06:57:07;23.30;99.90
33831;DHT22;20137;48.834;8.732;2023-08-12T06:59:59;23.50;99.90
33831;DHT22;20137;48.834;8.732;2023-08-12T07:05:20;23.80;99.90
33831;DHT22;20137;48.834;8.732;2023-08-12T07:07:51;24.00;99.90
33831;DHT22;20137;48.834;8.732;2023-08-12T07:10:20;24.30;99.90
33831;DHT22;20137;48.834;8.732;2023-08-12T07:13:06;24.60;99.90
33831;DHT22;20137;48.834;8.732;2023-08-12T07:15:35;24.70;99.90
33831;DHT22;20137;48.834;8.732;2023-08-12T07:18:24;24.70;99.90
33831;DHT22;20137;48.834;8.732;2023-08-12T07:21:01;24.70;99.90
33831;DHT22;20137;48.834;8.732;2023-08-12T07:23:29;24.70;99.90
33831;DHT22;20137;48.834;8.732;2023-08-12T07:26:17;24.90;99.90
33831;DHT22;20137;48.834;8.732;2023-08-12T07:29:05;24.90;99.90
33831;DHT22;20137;48.834;8.732;2023-08-12T07:31:47;25.10;99.90
33831;DHT22;20137;48.834;8.732;2023-08-12T07:34:13;25.20;99.90
33831;DHT22;20137;48.834;8.732;2023-08-12T07:39:44;25.50;99.90
33831;DHT22;20137;48.834;8.732;2023-08-12T07:42:15;25.40;99.90
33831;DHT22;20137;48.834;8.732;2023-08-12T07:44:44;25.60;99.90
33831;DHT22;20137;48.834;8.732;2023-08-12T07:47:21;25.70;99.90
33831;DHT22;20137;48.834;8.732;2023-08-12T07:49:50;25.70;99.90
33831;DHT22;20137;48.834;8.732;2023-08-12T07:52:18;25.70;99.90
33831;DHT22;20137;48.834;8.732;2023-08-12T07:54:46;25.90;99.90
33831;DHT22;20137;48.834;8.732;2023-08-12T07:57:12;26.10;99.90
33831;DHT22;20137;48.834;8.732;2023-08-12T08:00:00;26.20;99.90
33831;DHT22;20137;48.834;8.732;2023-08-12T08:02:31;26.20;99.90
33831;DHT22;20137;48.834;8.732;2023-08-12T08:05:17;25.80;99.90
33831;DHT22;20137;48.834;8.732;2023-08-12T08:07:43;25.70;99.90
33831;DHT22;20137;48.834;8.732;2023-08-12T08:10:14;25.80;99.90
33831;DHT22;20137;48.834;8.732;2023-08-12T08:13:00;25.60;99.90
33831;DHT22;20137;48.834;8.732;2023-08-12T08:15:35;25.60;99.90
33831;DHT22;20137;48.834;8.732;2023-08-12T08:18:06;25.80;99.90
33831;DHT22;20137;48.834;8.732;2023-08-12T08:20:34;25.70;99.90
33831;DHT22;20137;48.834;8.732;2023-08-12T08:23:00;25.60;99.90
33831;DHT22;20137;48.834;8.732;2023-08-12T08:25:26;25.60;99.90
33831;DHT22;20137;48.834;8.732;2023-08-12T08:27:55;25.50;99.90
33831;DHT22;20137;48.834;8.732;2023-08-12T08:30:26;25.30;99.90
33831;DHT22;20137;48.834;8.732;2023-08-12T08:33:17;25.20;99.90
33831;DHT22;20137;48.834;8.732;2023-08-12T08:36:00;25.10;99.90
33831;DHT22;20137;48.834;8.732;2023-08-12T08:38:45;25.10;99.90
33831;DHT22;20137;48.834;8.732;2023-08-12T08:41:34;25.10;99.90
33831;DHT22;20137;48.834;8.732;2023-08-12T08:44:11;25.20;99.90
33831;DHT22;20137;48.834;8.732;2023-08-12T08:47:06;25.30;99.90
33831;DHT22;20137;48.834;8.732;2023-08-12T08:49:57;25.70;99.90
33831;DHT22;20137;48.834;8.732;2023-08-12T08:52:32;26.10;99.90
33831;DHT22;20137;48.834;8.732;2023-08-12T08:57:43;26.10;99.90
33831;DHT22;20137;48.834;8.732;2023-08-12T09:00:19;26.20;99.90
33831;DHT22;20137;48.834;8.732;2023-08-12T09:03:06;26.20;99.90
33831;DHT22;20137;48.834;8.732;2023-08-12T09:05:37;26.40;99.90
33831;DHT22;20137;48.834;8.732;2023-08-12T09:08:27;26.40;99.90
33831;DHT22;20137;48.834;8.732;2023-08-12T09:11:00;26.50;99.90
33831;DHT22;20137;48.834;8.732;2023-08-12T09:13:30;26.70;99.90
33831;DHT22;20137;48.834;8.732;2023-08-12T09:15:59;26.70;99.90
33831;DHT22;20137;48.834;8.732;2023-08-12T09:18:39;26.70;99.90
33831;DHT22;20137;48.834;8.732;2023-08-12T09:21:08;26.80;99.90
33831;DHT22;20137;48.834;8.732;2023-08-12T09:23:39;27.00;99.90
33831;DHT22;20137;48.834;8.732;2023-08-12T09:26:17;27.10;99.90
33831;DHT22;20137;48.834;8.732;2023-08-12T09:28:54;27.20;99.90
33831;DHT22;20137;48.834;8.732;2023-08-12T09:31:26;27.30;99.90
33831;DHT22;20137;48.834;8.732;2023-08-12T09:34:08;27.10;99.90
33831;DHT22;20137;48.834;8.732;2023-08-12T09:36:49;27.10;99.90
33831;DHT22;20137;48.834;8.732;2023-08-12T09:39:19;27.20;99.90
33831;DHT22;20137;48.834;8.732;2023-08-12T09:42:05;27.40;99.90
33831;DHT22;20137;48.834;8.732;2023-08-12T09:44:42;27.70;99.90
33831;DHT22;20137;48.834;8.732;2023-08-12T09:47:33;27.90;99.90
33831;DHT22;20137;48.834;8.732;2023-08-12T09:50:11;27.90;99.90
33831;DHT22;20137;48.834;8.732;2023-08-12T09:52:43;28.00;99.90
33831;DHT22;20137;48.834;8.732;2023-08-12T09:55:23;28.00;99.90
33831;DHT22;20137;48.834;8.732;2023-08-12T09:58:07;28.10;99.90
33831;DHT22;20137;48.834;8.732;2023-08-12T10:00:50;28.10;99.90
33831;DHT22;20137;48.834;8.732;2023-08-12T10:03:22;28.00;99.90
33831;DHT22;20137;48.834;8.732;2023-08-12T10:05:51;28.00;99.90
33831;DHT22;20137;48.834;8.732;2023-08-12T10:08:20;27.90;99.90
33831;DHT22;20137;48.834;8.732;2023-08-12T10:10:59;27.80;99.90
33831;DHT22;20137;48.834;8.732;2023-08-12T10:13:48;27.70;99.90
33831;DHT22;20137;48.834;8.732;2023-08-12T10:16:34;27.90;99.90
33831;DHT22;20137;48.834;8.732;2023-08-12T10:19:05;27.50;99.90
33831;DHT22;20137;48.834;8.732;2023-08-12T10:21:37;27.60;99.90
33831;DHT22;20137;48.834;8.732;2023-08-12T10:26:57;27.80;99.90
33831;DHT22;20137;48.834;8.732;2023-08-12T10:29:25;27.80;99.90
33831;DHT22;20137;48.834;8.732;2023-08-12T10:31:54;27.90;99.90
33831;DHT22;20137;48.834;8.732;2023-08-12T10:34:22;28.00;99.90
33831;DHT22;20137;48.834;8.732;2023-08-12T10:36:54;28.10;99.90
33831;DHT22;20137;48.834;8.732;2023-08-12T10:39:27;28.50;99.90
33831;DHT22;20137;48.834;8.732;2023-08-12T10:41:57;29.00;99.90
33831;DHT22;20137;48.834;8.732;2023-08-12T10:44:27;28.90;99.90
33831;DHT22;20137;48.834;8.732;2023-08-12T10:47:08;29.30;99.90
33831;DHT22;20137;48.834;8.732;2023-08-12T10:49:48;29.60;99.90
33831;DHT22;20137;48.834;8.732;2023-08-12T10:52:38;29.40;99.90
33831;DHT22;20137;48.834;8.732;2023-08-12T10:55:27;29.10;99.90
33831;DHT22;20137;48.834;8.732;2023-08-12T10:58:14;28.80;99.90
33831;DHT22;20137;48.834;8.732;2023-08-12T11:00:57;28.20;99.90
33831;DHT22;20137;48.834;8.732;2023-08-12T11:03:36;27.80;99.90
33831;DHT22;20137;48.834;8.732;2023-08-12T11:06:14;27.60;99.90
33831;DHT22;20137;48.834;8.732;2023-08-12T11:08:47;27.30;99.90
33831;DHT22;20137;48.834;8.732;2023-08-12T11:11:44;27.00;99.90
33831;DHT22;20137;48.834;8.732;2023-08-12T11:14:16;26.70;99.90
33831;DHT22;20137;48.834;8.732;2023-08-12T11:16:47;26.10;99.90
33831;DHT22;20137;48.834;8.732;2023-08-12T11:19:19;25.90;99.90
33831;DHT22;20137;48.834;8.732;2023-08-12T11:22:08;25.80;99.90
33831;DHT22;20137;48.834;8.732;2023-08-12T11:24:34;26.00;99.90
33831;DHT22;20137;48.834;8.732;2023-08-12T11:27:09;26.30;99.90
33831;DHT22;20137;48.834;8.732;2023-08-12T11:29:45;26.80;99.90
33831;DHT22;20137;48.834;8.732;2023-08-12T11:32:31;27.00;99.90
33831;DHT22;20137;48.834;8.732;2023-08-12T11:34:57;27.10;99.90
33831;DHT22;20137;48.834;8.732;2023-08-12T11:37:23;27.00;99.90
33831;DHT22;20137;48.834;8.732;2023-08-12T11:39:52;26.70;99.90
33831;DHT22;20137;48.834;8.732;2023-08-12T11:42:21;26.50;99.90
33831;DHT22;20137;48.834;8.732;2023-08-12T11:44:47;26.60;99.90
33831;DHT22;20137;48.834;8.732;2023-08-12T11:47:15;26.80;99.90
33831;DHT22;20137;48.834;8.732;2023-08-12T11:49:43;26.60;99.90
33831;DHT22;20137;48.834;8.732;2023-08-12T11:52:16;26.30;99.90
33831;DHT22;20137;48.834;8.732;2023-08-12T11:54:49;26.40;99.90
33831;DHT22;20137;48.834;8.732;2023-08-12T11:57:15;26.50;99.90
33831;DHT22;20137;48.834;8.732;2023-08-12T11:59:46;26.70;99.90
33831;DHT22;20137;48.834;8.732;2023-08-12T12:02:15;26.70;99.90
33831;DHT22;20137;48.834;8.732;2023-08-12T12:04:44;26.10;99.90
33831;DHT22;20137;48.834;8.732;2023-08-12T12:07:24;26.00;99.90
33831;DHT22;20137;48.834;8.732;2023-08-12T12:09:55;26.00;99.90
33831;DHT22;20137;48.834;8.732;2023-08-12T12:15:14;26.20;99.90
33831;DHT22;20137;48.834;8.732;2023-08-12T12:17:51;26.20;99.90
33831;DHT22;20137;48.834;8.732;2023-08-12T12:20:17;26.30;99.90
33831;DHT22;20137;48.834;8.732;2023-08-12T12:22:47;26.40;99.90
33831;DHT22;20137;48.834;8.732;2023-08-12T12:25:22;26.50;99.90
33831;DHT22;20137;48.834;8.732;2023-08-12T12:28:02;26.50;99.90
33831;DHT22;20137;48.834;8.732;2023-08-12T12:30:29;26.50;99.90
33831;DHT22;20137;48.834;8.732;2023-08-12T12:33:05;26.50;99.90
33831;DHT22;20137;48.834;8.732;2023-08-12T12:35:43;26.40;99.90
33831;DHT22;20137;48.834;8.732;2023-08-12T12:38:23;26.40;99.90
33831;DHT22;20137;48.834;8.732;2023-08-12T12:40:51;26.20;99.90
33831;DHT22;20137;48.834;8.732;2023-08-12T12:43:22;26.50;99.90
33831;DHT22;20137;48.834;8.732;2023-08-12T12:46:07;27.20;99.90
33831;DHT22;20137;48.834;8.732;2023-08-12T12:48:36;27.70;99.90
33831;DHT22;20137;48.834;8.732;2023-08-12T12:51:02;27.60;99.90
33831;DHT22;20137;48.834;8.732;2023-08-12T12:53:31;27.80;99.90
33831;DHT22;20137;48.834;8.732;2023-08-12T12:56:09;28.10;99.90
33831;DHT22;20137;48.834;8.732;2023-08-12T12:58:48;27.40;99.90
33831;DHT22;20137;48.834;8.732;2023-08-12T13:01:16;27.50;99.90
33831;DHT22;20137;48.834;8.732;2023-08-12T13:03:47;27.80;99.90
33831;DHT22;20137;48.834;8.732;2023-08-12T13:06:22;28.10;99.90
33831;DHT22;20137;48.834;8.732;2023-08-12T13:08:58;28.10;99.90
33831;DHT22;20137;48.834;8.732;2023-08-12T13:11:32;27.80;99.90
33831;DHT22;20137;48.834;8.732;2023-08-12T13:16:46;27.70;99.90
33831;DHT22;20137;48.834;8.732;2023-08-12T13:19:25;27.60;99.90
33831;DHT22;20137;48.834;8.732;2023-08-12T13:21:56;27.90;99.90
33831;DHT22;20137;48.834;8.732;2023-08-12T13:24:43;28.00;99.90
33831;DHT22;20137;48.834;8.732;2023-08-12T13:27:12;28.40;99.90
33831;DHT22;20137;48.834;8.732;2023-08-12T13:29:38;28.80;99.90
33831;DHT22;20137;48.834;8.732;2023-08-12T13:32:07;28.80;99.90
33831;DHT22;20137;48.834;8.732;2023-08-12T13:34:32;28.90;99.90
33831;DHT22;20137;48.834;8.732;2023-08-12T13:37:00;28.80;99.90
33831;DHT22;20137;48.834;8.732;2023-08-12T13:39:26;28.50;99.90
33831;DHT22;20137;48.834;8.732;2023-08-12T13:44:35;27.90;99.90
33831;DHT22;20137;48.834;8.732;2023-08-12T13:47:04;27.90;99.90
33831;DHT22;20137;48.834;8.732;2023-08-12T13:49:32;28.00;99.90
33831;DHT22;20137;48.834;8.732;2023-08-12T13:52:00;28.10;99.90
33831;DHT22;20137;48.834;8.732;2023-08-12T13:54:28;27.90;99.90
33831;DHT22;20137;48.834;8.732;2023-08-12T13:57:02;27.60;99.90
33831;DHT22;20137;48.834;8.732;2023-08-12T13:59:32;27.40;99.90
33831;DHT22;20137;48.834;8.732;2023-08-12T14:02:19;27.60;99.90
33831;DHT22;20137;48.834;8.732;2023-08-12T14:05:07;27.50;99.90
33831;DHT22;20137;48.834;8.732;2023-08-12T14:07:41;27.40;99.90
33831;DHT22;20137;48.834;8.732;2023-08-12T14:10:07;27.50;99.90
33831;DHT22;20137;48.834;8.732;2023-08-12T14:12:45;27.20;99.90
33831;DHT22;20137;48.834;8.732;2023-08-12T14:15:16;27.10;99.90
33831;DHT22;20137;48.834;8.732;2023-08-12T14:17:41;27.20;99.90
33831;DHT22;20137;48.834;8.732;2023-08-12T14:20:10;27.20;99.90
33831;DHT22;20137;48.834;8.732;2023-08-12T14:23:05;27.10;99.90
33831;DHT22;20137;48.834;8.732;2023-08-12T14:25:36;27.40;99.90
33831;DHT22;20137;48.834;8.732;2023-08-12T14:28:05;27.60;99.90
33831;DHT22;20137;48.834;8.732;2023-08-12T14:30:38;27.80;99.90
33831;DHT22;20137;48.834;8.732;2023-08-12T14:33:13;27.20;99.90
33831;DHT22;20137;48.834;8.732;2023-08-12T14:36:11;26.70;99.90
33831;DHT22;20137;48.834;8.732;2023-08-12T14:38:40;26.00;99.90
33831;DHT22;20137;48.834;8.732;2023-08-12T14:41:13;25.80;99.90
33831;DHT22;20137;48.834;8.732;2023-08-12T14:43:59;25.60;99.90
33831;DHT22;20137;48.834;8.732;2023-08-12T14:46:24;25.60;99.90
33831;DHT22;20137;48.834;8.732;2023-08-12T14:48:50;25.50;99.90
33831;DHT22;20137;48.834;8.732;2023-08-12T14:51:18;25.40;99.90
33831;DHT22;20137;48.834;8.732;2023-08-12T14:53:44;25.30;99.90
33831;DHT22;20137;48.834;8.732;2023-08-12T14:56:19;25.20;99.90
33831;DHT22;20137;48.834;8.732;2023-08-12T14:58:44;25.10;99.90
33831;DHT22;20137;48.834;8.732;2023-08-12T15:01:40;24.90;99.90
33831;DHT22;20137;48.834;8.732;2023-08-12T15:04:05;24.80;99.90
33831;DHT22;20137;48.834;8.732;2023-08-12T15:06:34;24.60;99.90
33831;DHT22;20137;48.834;8.732;2023-08-12T15:08:59;24.50;99.90
33831;DHT22;20137;48.834;8.732;2023-08-12T15:11:39;24.40;99.90
33831;DHT22;20137;48.834;8.732;2023-08-12T15:14:18;24.30;99.90
33831;DHT22;20137;48.834;8.732;2023-08-12T15:16:47;24.30;99.90
33831;DHT22;20137;48.834;8.732;2023-08-12T15:19:12;24.10;99.90
33831;DHT22;20137;48.834;8.732;2023-08-12T15:21:43;24.00;99.90
33831;DHT22;20137;48.834;8.732;2023-08-12T15:24:12;23.80;99.90
33831;DHT22;20137;48.834;8.732;2023-08-12T15:26:49;23.50;99.90
33831;DHT22;20137;48.834;8.732;2023-08-12T15:29:15;23.20;99.90
33831;DHT22;20137;48.834;8.732;2023-08-12T15:31:46;23.00;99.90
33831;DHT22;20137;48.834;8.732;2023-08-12T15:34:18;22.80;99.90
33831;DHT22;20137;48.834;8.732;2023-08-12T15:36:43;22.50;99.90
33831;DHT22;20137;48.834;8.732;2023-08-12T15:39:19;22.40;99.90
33831;DHT22;20137;48.834;8.732;2023-08-12T15:41:47;22.30;99.90
33831;DHT22;20137;48.834;8.732;2023-08-12T15:44:14;22.20;99.90
33831;DHT22;20137;48.834;8.732;2023-08-12T15:46:43;22.10;99.90
33831;DHT22;20137;48.834;8.732;2023-08-12T15:49:14;22.00;99.90
33831;DHT22;20137;48.834;8.732;2023-08-12T15:52:00;22.00;99.90
33831;DHT22;20137;48.834;8.732;2023-08-12T15:54:32;21.80;99.90
33831;DHT22;20137;48.834;8.732;2023-08-12T15:57:00;21.70;99.90
33831;DHT22;20137;48.834;8.732;2023-08-12T15:59:26;21.60;99.90
33831;DHT22;20137;48.834;8.732;2023-08-12T16:02:00;21.50;99.90
33831;DHT22;20137;48.834;8.732;2023-08-12T16:04:26;21.40;99.90
33831;DHT22;20137;48.834;8.732;2023-08-12T16:07:03;21.30;99.90
33831;DHT22;20137;48.834;8.732;2023-08-12T16:09:29;21.30;99.90
33831;DHT22;20137;48.834;8.732;2023-08-12T16:12:06;21.20;99.90
33831;DHT22;20137;48.834;8.732;2023-08-12T16:14:31;21.20;99.90
33831;DHT22;20137;48.834;8.732;2023-08-12T16:17:02;21.20;99.90
33831;DHT22;20137;48.834;8.732;2023-08-12T16:20:03;21.20;99.90
33831;DHT22;20137;48.834;8.732;2023-08-12T16:22:35;21.10;99.90
33831;DHT22;20137;48.834;8.732;2023-08-12T16:25:05;21.20;99.90
33831;DHT22;20137;48.834;8.732;2023-08-12T16:27:36;21.20;99.90
33831;DHT22;20137;48.834;8.732;2023-08-12T16:30:05;21.20;99.90
33831;DHT22;20137;48.834;8.732;2023-08-12T16:32:51;21.20;99.90
33831;DHT22;20137;48.834;8.732;2023-08-12T16:35:22;21.20;99.90
33831;DHT22;20137;48.834;8.732;2023-08-12T16:38:01;21.30;99.90
33831;DHT22;20137;48.834;8.732;2023-08-12T16:40:32;21.30;99.90
33831;DHT22;20137;48.834;8.732;2023-08-12T16:42:58;21.40;99.90
33831;DHT22;20137;48.834;8.732;2023-08-12T16:45:29;21.50;99.90
33831;DHT22;20137;48.834;8.732;2023-08-12T16:48:06;21.70;99.90
33831;DHT22;20137;48.834;8.732;2023-08-12T16:50:31;22.00;99.90
33831;DHT22;20137;48.834;8.732;2023-08-12T16:53:02;22.40;99.90
33831;DHT22;20137;48.834;8.732;2023-08-12T16:55:31;22.90;99.90
33831;DHT22;20137;48.834;8.732;2023-08-12T16:58:01;23.20;99.90